createdAt,value
2023-03-05T00:00:13.992Z,102303.63
2023-03-05T00:00:47.491Z,102298.81
2023-03-05T00:01:24.974Z,102300.41
2023-03-05T00:01:59.426Z,102290.22
2023-03-05T00:02:34.856Z,102296.13
2023-03-05T00:03:06.347Z,102289.63
2023-03-05T00:03:40.302Z,102295.03
2023-03-05T00:04:15.452Z,102299.84
2023-03-05T00:04:46.891Z,102295.81
2023-03-05T00:05:21.523Z,102293.94
2023-03-05T00:05:57.730Z,102295.63
2023-03-05T00:06:33.261Z,102293.41
2023-03-05T00:07:10.286Z,102295.03
2023-03-05T00:07:41.855Z,102292.31
2023-03-05T00:08:13.386Z,102289.63
2023-03-05T00:08:45.088Z,102292.31
2023-03-05T00:09:16.742Z,102291.81
2023-03-05T00:09:48.123Z,102288.31
2023-03-05T00:10:19.760Z,102288.59
2023-03-05T00:10:59.667Z,102292.63
2023-03-05T00:11:36.803Z,102282.44
2023-03-05T00:12:08.661Z,102293.63
2023-03-05T00:12:40.238Z,102288.53
2023-03-05T00:13:11.655Z,102292.63
2023-03-05T00:13:43.418Z,102289.63
2023-03-05T00:14:14.847Z,102291.53
2023-03-05T00:14:46.235Z,102286.41
2023-03-05T00:15:17.719Z,102283.72
2023-03-05T00:15:49.143Z,102284.81
2023-03-05T00:16:21.492Z,102282.63
2023-03-05T00:16:53.139Z,102291.22
2023-03-05T00:17:24.574Z,102286.94
2023-03-05T00:17:55.967Z,102283.13
2023-03-05T00:18:27.350Z,102280.44
2023-03-05T00:19:00.302Z,102279.91
2023-03-05T00:19:31.899Z,102283.41
2023-03-05T00:20:03.742Z,102277.03
2023-03-05T00:20:35.996Z,102275.13
2023-03-05T00:21:21.414Z,102279.34
2023-03-05T00:21:52.817Z,102281.03
2023-03-05T00:22:24.261Z,102278.31
2023-03-05T00:22:55.677Z,102281.53
2023-03-05T00:23:27.877Z,102283.41
2023-03-05T00:24:03.524Z,102282.03
2023-03-05T00:24:35.323Z,102278.53
2023-03-05T00:25:07.176Z,102278.53
2023-03-05T00:25:39.278Z,102281.22
2023-03-05T00:26:10.790Z,102282.03
2023-03-05T00:26:42.244Z,102282.03
2023-03-05T00:27:17.872Z,102279.63
2023-03-05T00:27:49.263Z,102270.22
2023-03-05T00:28:20.718Z,102276.41
2023-03-05T00:28:52.678Z,102275.03
2023-03-05T00:29:24.315Z,102263.53
2023-03-05T00:29:55.725Z,102271.81
2023-03-05T00:30:27.403Z,102272.13
2023-03-05T00:31:02.204Z,102276.41
2023-03-05T00:31:35.552Z,102275.03
2023-03-05T00:32:09.518Z,102268.31
2023-03-05T00:32:41.124Z,102273.72
2023-03-05T00:33:13.790Z,102268.03
2023-03-05T00:33:45.673Z,102270.72
2023-03-05T00:34:18.666Z,102275.31
2023-03-05T00:34:50.161Z,102267.53
2023-03-05T00:35:21.754Z,102269.41
2023-03-05T00:35:53.716Z,102270.22
2023-03-05T00:36:25.905Z,102267.03
2023-03-05T00:36:57.582Z,102268.16
2023-03-05T00:37:29.182Z,102268.16
2023-03-05T00:38:00.553Z,102272.75
2023-03-05T00:38:31.998Z,102270.34
2023-03-05T00:39:03.650Z,102269.84
2023-03-05T00:39:35.217Z,102273.91
2023-03-05T00:40:07.606Z,102263.72
2023-03-05T00:41:30.255Z,102259.63
2023-03-05T00:42:02.288Z,102268.00
2023-03-05T00:42:38.427Z,102265.59
2023-03-05T00:43:10.650Z,102270.72
2023-03-05T00:43:42.413Z,102267.22
2023-03-05T00:44:14.026Z,102263.00
2023-03-05T00:44:48.088Z,102261.41
2023-03-05T00:45:19.718Z,102267.81
2023-03-05T00:45:53.858Z,102260.81
2023-03-05T00:46:27.398Z,102271.00
2023-03-05T00:46:58.951Z,102263.50
2023-03-05T00:47:30.320Z,102260.81
2023-03-05T00:48:05.489Z,102271.00
2023-03-05T00:48:39.933Z,102263.00
2023-03-05T00:49:11.392Z,102267.28
2023-03-05T00:49:45.644Z,102264.91
2023-03-05T00:50:17.235Z,102252.78
2023-03-05T00:50:49.655Z,102256.09
2023-03-05T00:51:24.375Z,102266.28
2023-03-05T00:51:58.244Z,102253.72
2023-03-05T00:52:30.150Z,102261.00
2023-03-05T00:53:01.609Z,102261.50
2023-03-05T00:53:33.230Z,102259.31
2023-03-05T00:54:05.549Z,102254.78
2023-03-05T00:54:37.006Z,102264.19
2023-03-05T00:55:08.817Z,102260.41
2023-03-05T00:55:40.347Z,102254.78
2023-03-05T00:56:12.525Z,102254.00
2023-03-05T00:56:44.884Z,102257.72
2023-03-05T00:57:18.614Z,102260.69
2023-03-05T00:57:50.021Z,102260.88
2023-03-05T00:58:21.692Z,102258.50
2023-03-05T00:58:53.351Z,102255.59
2023-03-05T00:59:24.806Z,102249.09
2023-03-05T00:59:59.300Z,102256.63
2023-03-05T01:00:30.824Z,102255.00
2023-03-05T01:01:02.965Z,102254.22
2023-03-05T01:01:34.477Z,102247.81
2023-03-05T01:02:06.141Z,102258.28
2023-03-05T01:02:37.978Z,102256.69
2023-03-05T01:03:09.975Z,102251.81
2023-03-05T01:03:42.010Z,102252.91
2023-03-05T01:04:14.593Z,102245.41
2023-03-05T01:04:48.974Z,102244.09
2023-03-05T01:05:20.819Z,102247.28
2023-03-05T01:05:52.294Z,102247.28
2023-03-05T01:06:26.941Z,102248.91
2023-03-05T01:06:58.468Z,102250.78
2023-03-05T01:07:29.914Z,102241.69
2023-03-05T01:08:01.862Z,102253.19
2023-03-05T01:08:34.727Z,102240.88
2023-03-05T01:09:06.303Z,102238.19
2023-03-05T01:09:37.817Z,102240.09
2023-03-05T01:10:11.390Z,102239.78
2023-03-05T01:10:45.617Z,102247.06
2023-03-05T01:11:17.012Z,102243.00
2023-03-05T01:11:51.560Z,102243.28
2023-03-05T01:12:27.675Z,102238.69
2023-03-05T01:13:00.059Z,102243.00
2023-03-05T01:13:31.749Z,102238.41
2023-03-05T01:14:03.404Z,102241.19
2023-03-05T01:14:35.812Z,102242.19
2023-03-05T01:15:07.715Z,102234.19
2023-03-05T01:15:39.153Z,102231.78
2023-03-05T01:16:12.325Z,102240.59
2023-03-05T01:16:44.050Z,102243.78
2023-03-05T01:17:19.878Z,102234.69
2023-03-05T01:17:54.237Z,102231.78
2023-03-05T01:18:25.769Z,102234.38
2023-03-05T01:18:57.268Z,102235.78
2023-03-05T01:19:28.911Z,102236.28
2023-03-05T01:20:00.246Z,102232.00
2023-03-05T01:20:31.936Z,102233.00
2023-03-05T01:21:03.872Z,102241.09
2023-03-05T01:21:36.379Z,102239.19
2023-03-05T01:22:10.918Z,102227.69
2023-03-05T01:22:42.392Z,102224.69
2023-03-05T01:23:14.096Z,102229.22
2023-03-05T01:23:45.475Z,102230.31
2023-03-05T01:24:19.242Z,102229.50
2023-03-05T01:24:50.608Z,102223.59
2023-03-05T01:25:22.013Z,102225.19
2023-03-05T01:25:58.250Z,102221.41
2023-03-05T01:26:30.067Z,102233.00
2023-03-05T01:27:01.535Z,102221.41
2023-03-05T01:27:34.158Z,102229.22
2023-03-05T01:28:05.826Z,102215.00
2023-03-05T01:28:38.257Z,102217.91
2023-03-05T01:29:09.741Z,102218.19
2023-03-05T01:29:42.323Z,102217.69
2023-03-05T01:30:18.156Z,102222.59
2023-03-05T01:30:49.976Z,102213.41
2023-03-05T01:31:21.519Z,102218.00
2023-03-05T01:31:53.108Z,102214.50
2023-03-05T01:32:24.617Z,102218.00
2023-03-05T01:32:58.781Z,102214.19
2023-03-05T01:33:30.336Z,102214.50
2023-03-05T01:34:02.172Z,102212.59
2023-03-05T01:34:33.673Z,102216.91
2023-03-05T01:35:15.271Z,102215.00
2023-03-05T01:35:48.640Z,102223.59
2023-03-05T01:36:21.609Z,102216.91
2023-03-05T01:36:55.213Z,102208.81
2023-03-05T01:37:26.657Z,102210.69
2023-03-05T01:37:58.112Z,102209.38
2023-03-05T01:38:29.642Z,102207.50
2023-03-05T01:39:01.437Z,102208.81
2023-03-05T01:39:32.982Z,102201.81
2023-03-05T01:40:06.088Z,102213.41
2023-03-05T01:40:37.497Z,102201.81
2023-03-05T01:41:09.936Z,102205.91
2023-03-05T01:41:41.386Z,102200.03
2023-03-05T01:42:12.872Z,102200.03
2023-03-05T01:42:48.762Z,102205.09
2023-03-05T01:43:28.481Z,102196.53
2023-03-05T01:44:00.707Z,102202.59
2023-03-05T01:44:35.110Z,102198.59
2023-03-05T01:45:11.744Z,102195.91
2023-03-05T01:46:20.251Z,102203.19
2023-03-05T01:46:51.630Z,102200.78
2023-03-05T01:47:23.059Z,102195.41
2023-03-05T01:47:54.510Z,102194.63
2023-03-05T01:48:26.816Z,102189.03
2023-03-05T01:49:04.299Z,102197.81
2023-03-05T01:49:39.731Z,102188.09
2023-03-05T01:50:16.569Z,102190.00
2023-03-05T01:50:48.070Z,102190.81
2023-03-05T01:51:22.638Z,102196.72
2023-03-05T01:52:09.290Z,102193.22
2023-03-05T01:52:46.234Z,102192.13
2023-03-05T01:53:17.924Z,102185.91
2023-03-05T01:53:49.530Z,102187.81
2023-03-05T01:54:24.547Z,102187.81
2023-03-05T01:55:00.781Z,102181.63
2023-03-05T01:55:34.437Z,102185.91
2023-03-05T01:56:06.492Z,102176.22
2023-03-05T01:56:39.949Z,102181.63
2023-03-05T01:57:15.840Z,102175.13
2023-03-05T01:57:52.081Z,102183.22
2023-03-05T01:58:25.493Z,102179.72
2023-03-05T01:59:03.405Z,102178.91
2023-03-05T01:59:37.511Z,102181.03
2023-03-05T02:00:16.076Z,102166.22
2023-03-05T02:00:49.438Z,102179.13
2023-03-05T02:01:21.205Z,102170.03
2023-03-05T02:01:56.327Z,102174.31
2023-03-05T02:02:28.019Z,102170.22
2023-03-05T02:03:05.366Z,102167.31
2023-03-05T02:03:37.783Z,102167.66
2023-03-05T02:04:16.382Z,102163.03
2023-03-05T02:05:12.081Z,102164.63
2023-03-05T02:05:44.478Z,102167.66
2023-03-05T02:06:15.970Z,102166.84
2023-03-05T02:06:48.574Z,102165.25
2023-03-05T02:07:21.016Z,102161.47
2023-03-05T02:07:56.330Z,102163.03
2023-03-05T02:08:27.912Z,102159.06
2023-03-05T02:09:00.107Z,102166.34
2023-03-05T02:09:31.619Z,102167.66
2023-03-05T02:10:15.922Z,102157.44
2023-03-05T02:10:55.226Z,102161.47
2023-03-05T02:11:27.153Z,102167.94
2023-03-05T02:11:58.885Z,102158.75
2023-03-05T02:12:30.839Z,102156.66
2023-03-05T02:13:07.478Z,102155.25
2023-03-05T02:13:40.882Z,102160.34
2023-03-05T02:14:12.719Z,102161.13
2023-03-05T02:14:47.792Z,102155.75
2023-03-05T02:15:19.337Z,102155.75
2023-03-05T02:15:52.882Z,102146.66
2023-03-05T02:16:24.351Z,102157.16
2023-03-05T02:16:55.876Z,102153.38
2023-03-05T02:17:28.311Z,102157.97
2023-03-05T02:18:01.354Z,102154.47
2023-03-05T02:18:32.817Z,102152.88
2023-03-05T02:19:07.192Z,102151.75
2023-03-05T02:19:56.994Z,102151.75
2023-03-05T02:20:42.226Z,102149.88
2023-03-05T02:21:13.934Z,102143.69
2023-03-05T02:21:48.791Z,102146.38
2023-03-05T02:22:22.770Z,102149.06
2023-03-05T02:22:54.488Z,102136.97
2023-03-05T02:23:29.908Z,102144.25
2023-03-05T02:24:01.389Z,102137.28
2023-03-05T02:24:37.445Z,102139.38
2023-03-05T02:25:29.038Z,102138.28
2023-03-05T02:26:00.819Z,102132.69
2023-03-05T02:26:32.355Z,102128.66
2023-03-05T02:27:05.284Z,102139.66
2023-03-05T02:27:36.794Z,102133.78
2023-03-05T02:28:16.099Z,102134.28
2023-03-05T02:28:52.113Z,102144.25
2023-03-05T02:29:24.441Z,102131.38
2023-03-05T02:29:55.999Z,102130.06
2023-03-05T02:30:28.547Z,102123.88
2023-03-05T02:31:00.237Z,102126.47
2023-03-05T02:31:31.811Z,102125.19
2023-03-05T02:32:04.029Z,102123.78
2023-03-05T02:32:35.748Z,102136.16
2023-03-05T02:33:07.255Z,102129.47
2023-03-05T02:33:38.722Z,102121.97
2023-03-05T02:34:10.655Z,102125.97
2023-03-05T02:34:42.265Z,102125.47
2023-03-05T02:35:13.898Z,102126.28
2023-03-05T02:35:46.566Z,102124.38
2023-03-05T02:36:18.731Z,102117.69
2023-03-05T02:36:55.487Z,102119.56
2023-03-05T02:37:26.868Z,102126.56
2023-03-05T02:37:58.586Z,102122.28
2023-03-05T02:38:32.763Z,102117.97
2023-03-05T02:39:07.202Z,102128.97
2023-03-05T02:39:39.590Z,102122.28
2023-03-05T02:40:12.321Z,102127.06
2023-03-05T02:40:43.990Z,102126.88
2023-03-05T02:41:15.612Z,102121.97
2023-03-05T02:41:47.102Z,102123.06
2023-03-05T02:42:18.611Z,102122.28
2023-03-05T02:42:50.143Z,102119.56
2023-03-05T02:43:21.626Z,102119.56
2023-03-05T02:43:53.230Z,102119.56
2023-03-05T02:44:24.634Z,102124.66
2023-03-05T02:44:56.076Z,102115.88
2023-03-05T02:45:27.650Z,102118.19
2023-03-05T02:45:59.191Z,102123.06
2023-03-05T02:46:30.700Z,102120.38
2023-03-05T02:47:03.232Z,102120.66
2023-03-05T02:47:34.616Z,102116.38
2023-03-05T02:48:06.439Z,102120.06
2023-03-05T02:48:37.867Z,102119.06
2023-03-05T02:49:10.471Z,102115.28
2023-03-05T02:49:41.879Z,102111.47
2023-03-05T02:50:13.560Z,102116.88
2023-03-05T02:50:46.313Z,102110.09
2023-03-05T02:51:18.275Z,102112.56
2023-03-05T02:51:52.092Z,102106.38
2023-03-05T02:52:23.811Z,102117.38
2023-03-05T02:52:57.736Z,102113.88
2023-03-05T02:53:29.160Z,102111.19
2023-03-05T02:54:00.572Z,102112.78
2023-03-05T02:54:34.534Z,102111.69
2023-03-05T02:55:06.687Z,102105.00
2023-03-05T02:55:38.070Z,102101.78
2023-03-05T02:56:09.691Z,102101.00
2023-03-05T02:56:41.916Z,102102.28
2023-03-05T02:57:13.466Z,102096.09
2023-03-05T02:57:47.262Z,102104.19
2023-03-05T02:58:18.730Z,102096.41
2023-03-05T02:58:50.169Z,102097.69
2023-03-05T02:59:21.794Z,102099.59
2023-03-05T02:59:54.259Z,102096.91
2023-03-05T03:00:26.348Z,102096.41
2023-03-05T03:00:57.838Z,102098.28
2023-03-05T03:01:29.791Z,102092.91
2023-03-05T03:02:01.528Z,102091.00
2023-03-05T03:02:33.030Z,102100.41
2023-03-05T03:03:04.536Z,102094.00
2023-03-05T03:03:38.038Z,102095.31
2023-03-05T03:04:09.375Z,102092.41
2023-03-05T03:04:40.993Z,102087.28
2023-03-05T03:05:12.497Z,102094.00
2023-03-05T03:05:43.961Z,102087.28
2023-03-05T03:06:15.484Z,102092.91
2023-03-05T03:06:46.865Z,102088.31
2023-03-05T03:07:18.353Z,102086.50
2023-03-05T03:07:50.080Z,102082.72
2023-03-05T03:08:21.734Z,102091.59
2023-03-05T03:08:53.186Z,102074.72
2023-03-05T03:09:25.444Z,102078.09
2023-03-05T03:09:56.956Z,102082.41
2023-03-05T03:10:30.990Z,102080.31
2023-03-05T03:11:12.466Z,102077.81
2023-03-05T03:11:43.860Z,102074.31
2023-03-05T03:12:15.455Z,102079.72
2023-03-05T03:12:46.973Z,102074.63
2023-03-05T03:13:18.395Z,102074.91
2023-03-05T03:13:51.113Z,102078.09
2023-03-05T03:14:22.668Z,102073.31
2023-03-05T03:14:54.090Z,102074.13
2023-03-05T03:15:25.884Z,102066.34
2023-03-05T03:16:05.676Z,102074.31
2023-03-05T03:16:37.445Z,102072.22
2023-03-05T03:17:11.661Z,102071.13
2023-03-05T03:17:43.301Z,102066.81
2023-03-05T03:18:14.693Z,102069.53
2023-03-05T03:18:48.841Z,102059.53
2023-03-05T03:19:20.643Z,102064.13
2023-03-05T03:19:52.094Z,102066.53
2023-03-05T03:20:24.185Z,102066.22
2023-03-05T03:20:55.624Z,102070.53
2023-03-05T03:21:27.300Z,102059.22
2023-03-05T03:21:58.881Z,102061.13
2023-03-05T03:22:30.340Z,102060.63
2023-03-05T03:23:05.143Z,102058.13
2023-03-05T03:23:36.565Z,102060.84
2023-03-05T03:24:08.044Z,102053.84
2023-03-05T03:24:42.933Z,102061.94
2023-03-05T03:25:16.857Z,102063.03
2023-03-05T03:25:50.606Z,102054.44
2023-03-05T03:26:22.067Z,102063.03
2023-03-05T03:26:53.768Z,102063.53
2023-03-05T03:27:25.262Z,102057.13
2023-03-05T03:27:56.893Z,102057.13
2023-03-05T03:28:28.352Z,102063.03
2023-03-05T03:28:59.923Z,102058.72
2023-03-05T03:29:31.847Z,102054.44
2023-03-05T03:30:04.907Z,102063.81
2023-03-05T03:30:36.447Z,102058.13
2023-03-05T03:31:08.124Z,102057.13
2023-03-05T03:31:41.218Z,102057.94
2023-03-05T03:32:12.732Z,102060.34
2023-03-05T03:32:44.663Z,102063.81
2023-03-05T03:33:18.090Z,102067.31
2023-03-05T03:33:50.053Z,102060.34
2023-03-05T03:34:21.529Z,102060.16
2023-03-05T03:34:52.912Z,102061.44
2023-03-05T03:35:24.287Z,102050.75
2023-03-05T03:35:55.724Z,102053.97
2023-03-05T03:36:27.175Z,102057.13
2023-03-05T03:36:58.595Z,102056.38
2023-03-05T03:37:32.633Z,102059.06
2023-03-05T03:38:04.457Z,102057.63
2023-03-05T03:38:35.803Z,102058.72
2023-03-05T03:39:09.771Z,102051.56
2023-03-05T03:39:43.465Z,102057.94
2023-03-05T03:40:15.044Z,102056.03
2023-03-05T03:40:46.603Z,102050.97
2023-03-05T03:41:20.070Z,102052.88
2023-03-05T03:41:53.195Z,102054.94
2023-03-05T03:42:25.116Z,102055.22
2023-03-05T03:42:56.777Z,102052.38
2023-03-05T03:43:28.348Z,102048.88
2023-03-05T03:43:59.917Z,102042.97
2023-03-05T03:44:31.797Z,102043.47
2023-03-05T03:45:06.444Z,102048.56
2023-03-05T03:45:41.847Z,102048.56
2023-03-05T03:46:13.589Z,102046.16
2023-03-05T03:46:46.285Z,102045.88
2023-03-05T03:47:17.995Z,102034.09
2023-03-05T03:47:50.382Z,102042.38
2023-03-05T03:48:21.801Z,102045.38
2023-03-05T03:48:53.299Z,102035.47
2023-03-05T03:49:27.008Z,102028.19
2023-03-05T03:49:58.935Z,102041.88
2023-03-05T03:50:30.589Z,102033.56
2023-03-05T03:51:05.172Z,102034.88
2023-03-05T03:51:36.647Z,102028.78
2023-03-05T03:52:08.594Z,102028.78
2023-03-05T03:52:39.960Z,102036.06
2023-03-05T03:53:14.804Z,102038.16
2023-03-05T03:53:46.247Z,102031.47
2023-03-05T03:54:19.037Z,102026.38
2023-03-05T03:54:52.426Z,102022.59
2023-03-05T03:55:23.854Z,102028.47
2023-03-05T03:55:58.525Z,102024.47
2023-03-05T03:56:30.015Z,102034.69
2023-03-05T03:57:01.596Z,102038.16
2023-03-05T03:57:36.175Z,102033.06
2023-03-05T03:58:07.858Z,102028.47
2023-03-05T03:58:39.481Z,102028.47
2023-03-05T03:59:11.778Z,102028.47
2023-03-05T03:59:45.315Z,102027.19
2023-03-05T04:00:17.537Z,102027.97
2023-03-05T04:00:51.429Z,102022.38
2023-03-05T04:01:22.859Z,102030.97
2023-03-05T04:01:54.788Z,102038.47
2023-03-05T04:02:26.774Z,102039.25
2023-03-05T04:02:58.303Z,102026.16
2023-03-05T04:03:29.885Z,102024.78
2023-03-05T04:04:01.650Z,102030.69
2023-03-05T04:04:33.340Z,102031.97
2023-03-05T04:05:05.158Z,102031.97
2023-03-05T04:05:36.781Z,102029.28
2023-03-05T04:06:08.382Z,102028.47
2023-03-05T04:06:40.178Z,102033.06
2023-03-05T04:07:11.643Z,102026.09
2023-03-05T04:07:43.094Z,102032.56
2023-03-05T04:08:14.497Z,102030.69
2023-03-05T04:08:45.910Z,102028.78
2023-03-05T04:09:17.370Z,102030.97
2023-03-05T04:09:48.862Z,102027.97
2023-03-05T04:10:20.232Z,102025.59
2023-03-05T04:10:51.672Z,102030.88
2023-03-05T04:11:23.485Z,102031.97
2023-03-05T04:11:54.807Z,102028.78
2023-03-05T04:12:26.409Z,102022.28
2023-03-05T04:12:57.774Z,102025.50
2023-03-05T04:13:29.290Z,102017.69
2023-03-05T04:14:00.731Z,102017.41
2023-03-05T04:14:32.062Z,102024.69
2023-03-05T04:15:03.802Z,102011.22
2023-03-05T04:15:35.493Z,102016.59
2023-03-05T04:16:07.037Z,102012.59
2023-03-05T04:16:38.513Z,102018.50
2023-03-05T04:17:10.644Z,102012.00
2023-03-05T04:17:41.970Z,102017.41
2023-03-05T04:18:13.562Z,102016.59
2023-03-05T04:18:45.767Z,102011.72
2023-03-05T04:19:17.442Z,102016.00
2023-03-05T04:19:48.846Z,102019.00
2023-03-05T04:20:20.354Z,102014.41
2023-03-05T04:20:51.769Z,102015.22
2023-03-05T04:21:23.267Z,102010.41
2023-03-05T04:21:54.779Z,102008.50
2023-03-05T04:22:26.303Z,102017.41
2023-03-05T04:22:57.690Z,102019.59
2023-03-05T04:23:29.264Z,102010.72
2023-03-05T04:24:00.739Z,102016.09
2023-03-05T04:24:32.176Z,102008.81
2023-03-05T04:25:06.736Z,102016.09
2023-03-05T04:25:38.220Z,102005.09
2023-03-05T04:26:09.642Z,102013.41
2023-03-05T04:26:41.019Z,102003.50
2023-03-05T04:27:12.672Z,102011.00
2023-03-05T04:27:44.136Z,102002.41
2023-03-05T04:28:15.844Z,102011.00
2023-03-05T04:28:50.230Z,102004.22
2023-03-05T04:29:21.705Z,102005.63
2023-03-05T04:29:53.065Z,102002.91
2023-03-05T04:30:24.501Z,102000.81
2023-03-05T04:30:58.871Z,102005.63
2023-03-05T04:31:30.562Z,102000.81
2023-03-05T04:32:02.695Z,102002.41
2023-03-05T04:32:34.264Z,102007.50
2023-03-05T04:33:05.743Z,102006.72
2023-03-05T04:33:37.314Z,101998.63
2023-03-05T04:34:08.937Z,102002.63
2023-03-05T04:34:40.317Z,102009.91
2023-03-05T04:35:11.780Z,102002.91
2023-03-05T04:35:43.464Z,102002.41
2023-03-05T04:36:14.990Z,101999.72
2023-03-05T04:36:46.434Z,101998.91
2023-03-05T04:37:18.022Z,101998.91
2023-03-05T04:37:49.470Z,101997.03
2023-03-05T04:38:20.806Z,101997.81
2023-03-05T04:38:52.205Z,102002.41
2023-03-05T04:39:23.657Z,102003.50
2023-03-05T04:39:55.249Z,101997.63
2023-03-05T04:40:26.620Z,101996.53
2023-03-05T04:40:58.247Z,101995.22
2023-03-05T04:41:29.697Z,101998.13
2023-03-05T04:42:49.624Z,101997.03
2023-03-05T04:43:21.174Z,102001.63
2023-03-05T04:43:52.545Z,101995.41
2023-03-05T04:44:25.997Z,101987.63
2023-03-05T04:44:57.721Z,101996.81
2023-03-05T04:45:29.470Z,101984.75
2023-03-05T04:46:01.112Z,101991.72
2023-03-05T04:46:32.775Z,101993.03
2023-03-05T04:47:04.745Z,101978.25
2023-03-05T04:47:36.979Z,101986.03
2023-03-05T04:48:09.370Z,101993.03
2023-03-05T04:48:40.826Z,101988.44
2023-03-05T04:49:12.346Z,101985.75
2023-03-05T04:49:43.910Z,101984.63
2023-03-05T04:50:15.463Z,101984.94
2023-03-05T04:50:46.912Z,101985.44
2023-03-05T04:51:18.310Z,101980.34
2023-03-05T04:51:49.750Z,101986.53
2023-03-05T04:52:21.146Z,101976.06
2023-03-05T04:52:52.529Z,101970.97
2023-03-05T04:53:23.972Z,101979.84
2023-03-05T04:53:55.504Z,101985.22
2023-03-05T04:54:27.271Z,101977.16
2023-03-05T04:54:59.068Z,101971.75
2023-03-05T04:55:30.630Z,101975.25
2023-03-05T04:56:02.147Z,101976.06
2023-03-05T04:56:33.814Z,101976.34
2023-03-05T04:57:05.867Z,101969.88
2023-03-05T04:57:37.600Z,101979.84
2023-03-05T04:58:09.235Z,101985.22
2023-03-05T04:58:40.710Z,101973.97
2023-03-05T04:59:12.202Z,101972.84
2023-03-05T04:59:43.623Z,101979.03
2023-03-05T05:00:16.725Z,101979.84
2023-03-05T05:00:48.535Z,101979.84
2023-03-05T05:01:21.381Z,101984.44
2023-03-05T05:01:52.822Z,101973.47
2023-03-05T05:02:24.330Z,101982.06
2023-03-05T05:02:55.771Z,101982.06
2023-03-05T05:03:27.219Z,101979.38
2023-03-05T05:03:58.598Z,101976.19
2023-03-05T05:04:30.472Z,101983.63
2023-03-05T05:05:01.898Z,101982.06
2023-03-05T05:05:33.377Z,101977.47
2023-03-05T05:06:05.154Z,101972.84
2023-03-05T05:06:36.796Z,101978.25
2023-03-05T05:07:08.268Z,101981.56
2023-03-05T05:07:40.079Z,101983.63
2023-03-05T05:08:11.479Z,101975.06
2023-03-05T05:08:43.487Z,101975.88
2023-03-05T05:09:15.164Z,101978.25
2023-03-05T05:09:46.582Z,101976.69
2023-03-05T05:10:18.262Z,101982.06
2023-03-05T05:11:07.268Z,101978.25
2023-03-05T05:11:39.842Z,101980.16
2023-03-05T05:12:11.234Z,101975.38
2023-03-05T05:12:43.181Z,101976.97
2023-03-05T05:13:14.573Z,101971.59
2023-03-05T05:13:46.055Z,101975.06
2023-03-05T05:14:17.831Z,101975.88
2023-03-05T05:14:49.635Z,101973.47
2023-03-05T05:15:21.224Z,101975.06
2023-03-05T05:15:53.055Z,101970.78
2023-03-05T05:16:24.557Z,101965.38
2023-03-05T05:16:56.178Z,101961.69
2023-03-05T05:17:30.876Z,101966.50
2023-03-05T05:18:02.568Z,101958.69
2023-03-05T05:18:33.987Z,101967.88
2023-03-05T05:19:05.615Z,101970.28
2023-03-05T05:19:37.273Z,101964.69
2023-03-05T05:20:11.382Z,101961.41
2023-03-05T05:20:42.787Z,101957.09
2023-03-05T05:21:15.052Z,101961.69
2023-03-05T05:21:47.127Z,101957.69
2023-03-05T05:22:18.663Z,101955.50
2023-03-05T05:22:50.075Z,101960.88
2023-03-05T05:23:21.602Z,101960.59
2023-03-05T05:23:53.009Z,101955.81
2023-03-05T05:24:24.498Z,101960.09
2023-03-05T05:24:56.350Z,101957.09
2023-03-05T05:25:27.869Z,101955.81
2023-03-05T05:26:01.333Z,101946.41
2023-03-05T05:26:32.876Z,101957.91
2023-03-05T05:27:04.384Z,101949.09
2023-03-05T05:27:36.572Z,101951.50
2023-03-05T05:28:07.950Z,101948.50
2023-03-05T05:28:42.727Z,101950.91
2023-03-05T05:29:14.177Z,101949.91
2023-03-05T05:29:50.117Z,101950.41
2023-03-05T05:30:21.561Z,101953.09
2023-03-05T05:30:53.048Z,101953.41
2023-03-05T05:31:24.435Z,101952.31
2023-03-05T05:31:56.395Z,101948.59
2023-03-05T05:32:28.081Z,101954.19
2023-03-05T05:32:59.489Z,101948.59
2023-03-05T05:33:33.993Z,101949.41
2023-03-05T05:34:05.460Z,101946.41
2023-03-05T05:34:37.057Z,101944.00
2023-03-05T05:35:10.018Z,101945.91
2023-03-05T05:35:41.448Z,101951.59
2023-03-05T05:36:15.758Z,101951.50
2023-03-05T05:36:47.208Z,101950.19
2023-03-05T05:37:18.704Z,101947.50
2023-03-05T05:37:50.138Z,101947.00
2023-03-05T05:38:21.662Z,101946.72
2023-03-05T05:38:53.178Z,101940.53
2023-03-05T05:39:24.682Z,101946.72
2023-03-05T05:39:56.378Z,101939.22
2023-03-05T05:40:27.971Z,101951.81
2023-03-05T05:41:07.246Z,101959.09
2023-03-05T05:41:38.647Z,101947.00
2023-03-05T05:42:10.228Z,101944.59
2023-03-05T05:42:41.625Z,101945.41
2023-03-05T05:43:13.235Z,101948.09
2023-03-05T05:43:44.975Z,101947.00
2023-03-05T05:44:16.328Z,101951.31
2023-03-05T05:44:47.769Z,101944.59
2023-03-05T05:45:19.277Z,101950.50
2023-03-05T05:45:50.775Z,101947.00
2023-03-05T05:46:23.147Z,101947.00
2023-03-05T05:46:54.785Z,101948.09
2023-03-05T05:47:26.178Z,101948.09
2023-03-05T05:47:57.713Z,101947.31
2023-03-05T05:48:31.286Z,101946.81
2023-03-05T05:49:02.681Z,101947.59
2023-03-05T05:49:34.053Z,101944.09
2023-03-05T05:50:05.893Z,101936.34
2023-03-05T05:50:38.593Z,101931.56
2023-03-05T05:51:16.578Z,101940.94
2023-03-05T05:51:47.913Z,101943.31
2023-03-05T05:52:19.385Z,101942.03
2023-03-05T05:52:52.040Z,101945.81
2023-03-05T05:53:24.220Z,101940.94
2023-03-05T05:53:58.305Z,101942.34
2023-03-05T05:54:29.811Z,101940.13
2023-03-05T05:55:01.456Z,101933.94
2023-03-05T05:55:33.088Z,101939.03
2023-03-05T05:56:06.035Z,101927.56
2023-03-05T05:56:37.693Z,101927.25
2023-03-05T05:57:09.184Z,101940.63
2023-03-05T05:57:40.971Z,101937.13
2023-03-05T05:58:12.468Z,101942.34
2023-03-05T05:58:47.089Z,101937.13
2023-03-05T05:59:18.651Z,101931.56
2023-03-05T05:59:50.110Z,101935.34
2023-03-05T06:00:22.257Z,101937.53
2023-03-05T06:00:53.733Z,101940.44
2023-03-05T06:01:28.223Z,101935.56
2023-03-05T06:02:00.264Z,101931.06
2023-03-05T06:02:32.087Z,101935.63
2023-03-05T06:03:04.165Z,101935.34
2023-03-05T06:03:35.665Z,101934.53
2023-03-05T06:04:07.505Z,101931.84
2023-03-05T06:04:40.192Z,101934.03
2023-03-05T06:05:13.662Z,101940.72
2023-03-05T06:05:45.107Z,101933.75
2023-03-05T06:06:19.276Z,101935.44
2023-03-05T06:06:50.775Z,101934.03
2023-03-05T06:07:22.260Z,101931.94
2023-03-05T06:07:53.980Z,101921.97
2023-03-05T06:08:25.431Z,101936.75
2023-03-05T06:08:57.411Z,101930.25
2023-03-05T06:09:29.478Z,101934.03
2023-03-05T06:10:00.960Z,101932.44
2023-03-05T06:10:32.394Z,101921.97
2023-03-05T06:11:04.552Z,101932.66
2023-03-05T06:11:37.391Z,101918.97
2023-03-05T06:12:09.036Z,101921.97
2023-03-05T06:12:40.551Z,101928.84
2023-03-05T06:13:14.861Z,101926.75
2023-03-05T06:13:47.587Z,101927.56